createdAt,value
2022-10-04T00:01:48.982Z,100.00
2022-10-04T00:04:20.187Z,100.00
2022-10-04T00:07:04.101Z,100.00
2022-10-04T00:09:43.718Z,100.00
2022-10-04T00:12:22.032Z,100.00
2022-10-04T00:14:52.127Z,100.00
2022-10-04T00:17:27.348Z,100.00
2022-10-04T00:19:55.492Z,100.00
2022-10-04T00:22:31.525Z,100.00
2022-10-04T00:25:17.970Z,100.00
2022-10-04T00:28:36.843Z,100.00
2022-10-04T00:31:07.522Z,100.00
2022-10-04T00:33:45.770Z,100.00
2022-10-04T00:36:25.412Z,100.00
2022-10-04T00:39:07.933Z,100.00
2022-10-04T00:41:55.191Z,100.00
2022-10-04T00:44:25.466Z,100.00
2022-10-04T00:46:55.182Z,100.00
2022-10-04T00:49:27.037Z,100.00
2022-10-04T00:51:58.408Z,100.00
2022-10-04T00:54:41.589Z,100.00
2022-10-04T00:57:15.344Z,100.00
2022-10-04T00:59:50.723Z,100.00
2022-10-04T01:02:26.609Z,100.00
2022-10-04T01:05:10.723Z,100.00
2022-10-04T01:07:53.064Z,100.00
2022-10-04T01:10:25.111Z,100.00
2022-10-04T01:13:09.767Z,100.00
2022-10-04T01:15:55.351Z,100.00
2022-10-04T01:18:23.013Z,100.00
2022-10-04T01:20:53.957Z,100.00
2022-10-04T01:23:43.945Z,100.00
2022-10-04T01:26:26.728Z,100.00
2022-10-04T01:28:55.261Z,100.00
2022-10-04T01:31:23.300Z,100.00
2022-10-04T01:33:51.078Z,100.00
2022-10-04T01:36:19.021Z,100.00
2022-10-04T01:38:47.509Z,100.00
2022-10-04T01:41:20.001Z,100.00
2022-10-04T01:43:52.592Z,100.00
2022-10-04T01:46:27.504Z,100.00
2022-10-04T01:48:57.269Z,100.00
2022-10-04T01:51:31.721Z,100.00
2022-10-04T01:54:05.700Z,100.00
2022-10-04T01:56:43.355Z,100.00
2022-10-04T01:59:31.915Z,100.00
2022-10-04T02:02:17.612Z,100.00
2022-10-04T02:04:52.671Z,100.00
2022-10-04T02:07:21.761Z,100.00
2022-10-04T02:09:55.091Z,100.00
2022-10-04T02:12:22.916Z,100.00
2022-10-04T02:14:53.552Z,100.00
2022-10-04T02:17:28.537Z,100.00
2022-10-04T02:19:57.571Z,100.00
2022-10-04T02:22:26.380Z,100.00
2022-10-04T02:24:57.043Z,100.00
2022-10-04T02:27:31.310Z,100.00
2022-10-04T02:30:10.728Z,100.00
2022-10-04T02:32:58.047Z,100.00
2022-10-04T02:35:29.884Z,100.00
2022-10-04T02:38:19.193Z,100.00
2022-10-04T02:41:04.636Z,100.00
2022-10-04T02:44:11.438Z,100.00
2022-10-04T02:46:45.009Z,100.00
2022-10-04T02:49:17.647Z,100.00
2022-10-04T02:52:18.747Z,100.00
2022-10-04T02:54:49.517Z,100.00
2022-10-04T02:57:22.355Z,100.00
2022-10-04T02:59:51.332Z,100.00
2022-10-04T03:02:30.164Z,100.00
2022-10-04T03:05:08.495Z,100.00
2022-10-04T03:07:37.297Z,100.00
2022-10-04T03:10:13.501Z,100.00
2022-10-04T03:12:41.682Z,100.00
2022-10-04T03:15:12.969Z,100.00
2022-10-04T03:17:43.981Z,100.00
2022-10-04T03:20:16.210Z,100.00
2022-10-04T03:22:47.139Z,100.00
2022-10-04T03:25:21.514Z,100.00
2022-10-04T03:27:51.283Z,100.00
2022-10-04T03:30:22.125Z,100.00
2022-10-04T03:32:50.497Z,100.00
2022-10-04T03:35:39.393Z,100.00
2022-10-04T03:38:11.454Z,100.00
2022-10-04T03:40:43.531Z,100.00
2022-10-04T03:43:14.071Z,100.00
2022-10-04T03:45:42.344Z,100.00
2022-10-04T03:48:15.427Z,100.00
2022-10-04T03:50:49.270Z,100.00
2022-10-04T03:53:37.308Z,100.00
2022-10-04T03:56:31.664Z,100.00
2022-10-04T03:59:02.515Z,100.00
2022-10-04T04:01:41.192Z,100.00
2022-10-04T04:04:17.911Z,100.00
2022-10-04T04:06:51.455Z,100.00
2022-10-04T04:09:48.067Z,100.00
2022-10-04T04:12:21.747Z,100.00
2022-10-04T04:14:52.149Z,100.00
2022-10-04T04:17:33.896Z,100.00
2022-10-04T04:20:07.585Z,100.00
2022-10-04T04:22:37.042Z,100.00
2022-10-04T04:25:09.130Z,100.00
2022-10-04T04:27:40.665Z,100.00
2022-10-04T04:30:09.474Z,100.00
2022-10-04T04:32:41.662Z,100.00
2022-10-04T04:35:25.563Z,100.00
2022-10-04T04:38:04.279Z,100.00
2022-10-04T04:40:32.706Z,100.00
2022-10-04T04:43:02.588Z,100.00
2022-10-04T04:45:33.238Z,100.00
2022-10-04T04:48:03.724Z,100.00
2022-10-04T04:50:39.910Z,100.00
2022-10-04T04:53:27.690Z,100.00
2022-10-04T04:56:03.754Z,100.00
2022-10-04T04:58:43.499Z,100.00
2022-10-04T05:01:45.374Z,100.00
2022-10-04T05:04:13.300Z,100.00
2022-10-04T05:06:44.858Z,100.00
2022-10-04T05:09:28.482Z,100.00
2022-10-04T05:12:07.282Z,100.00
2022-10-04T05:14:39.734Z,100.00
2022-10-04T05:17:07.628Z,100.00
2022-10-04T05:19:40.163Z,100.00
2022-10-04T05:22:13.580Z,100.00
2022-10-04T05:24:47.032Z,100.00
2022-10-04T05:27:22.570Z,100.00
2022-10-04T05:30:06.266Z,100.00
2022-10-04T05:33:00.535Z,100.00
2022-10-04T05:35:29.862Z,100.00
2022-10-04T05:38:30.955Z,100.00
2022-10-04T05:41:09.097Z,100.00
2022-10-04T05:43:44.676Z,100.00
2022-10-04T05:46:21.437Z,100.00
2022-10-04T05:48:55.863Z,100.00
2022-10-04T05:51:26.995Z,100.00
2022-10-04T05:53:57.662Z,100.00
2022-10-04T05:56:31.218Z,100.00
2022-10-04T05:59:16.948Z,100.00
2022-10-04T06:02:03.673Z,100.00
2022-10-04T06:04:48.322Z,100.00
2022-10-04T06:07:22.590Z,100.00
2022-10-04T06:10:00.396Z,100.00
2022-10-04T06:12:44.555Z,100.00
2022-10-04T06:15:31.858Z,100.00
2022-10-04T06:18:07.781Z,100.00
2022-10-04T06:20:58.166Z,100.00
2022-10-04T06:23:29.256Z,100.00
2022-10-04T06:26:08.072Z,100.00
2022-10-04T06:28:46.677Z,100.00
2022-10-04T06:31:25.860Z,100.00
2022-10-04T06:34:37.406Z,100.00
2022-10-04T06:37:23.240Z,100.00
2022-10-04T06:40:15.404Z,100.00
2022-10-04T06:42:58.052Z,100.00
2022-10-04T06:45:37.687Z,100.00
2022-10-04T06:48:20.617Z,100.00
2022-10-04T06:51:36.061Z,100.00
2022-10-04T06:54:43.066Z,100.00
2022-10-04T06:57:22.882Z,100.00
2022-10-04T07:00:13.857Z,100.00
2022-10-04T07:02:52.665Z,100.00
2022-10-04T07:06:01.405Z,100.00
2022-10-04T07:08:56.193Z,100.00
2022-10-04T07:11:37.329Z,100.00
2022-10-04T07:14:16.825Z,100.00
2022-10-04T07:16:56.112Z,100.00
2022-10-04T07:19:45.524Z,100.00
2022-10-04T07:22:26.247Z,100.00
2022-10-04T07:24:56.681Z,100.00
2022-10-04T07:27:27.189Z,100.00
2022-10-04T07:29:58.165Z,100.00
2022-10-04T07:32:29.988Z,100.00
2022-10-04T07:35:09.527Z,100.00
2022-10-04T07:38:00.277Z,100.00
2022-10-04T07:40:30.577Z,100.00
2022-10-04T07:43:04.881Z,100.00
2022-10-04T07:45:40.046Z,100.00
2022-10-04T07:48:23.342Z,100.00
2022-10-04T07:50:56.639Z,100.00
2022-10-04T07:53:29.569Z,100.00
2022-10-04T07:56:08.651Z,100.00
2022-10-04T07:58:55.401Z,100.00
2022-10-04T08:01:35.411Z,100.00
2022-10-04T08:04:05.863Z,100.00
2022-10-04T08:06:38.193Z,100.00
2022-10-04T08:09:21.971Z,100.00
2022-10-04T08:12:24.510Z,100.00
2022-10-04T08:15:23.762Z,100.00
2022-10-04T08:18:17.669Z,100.00
2022-10-04T08:20:50.437Z,100.00
2022-10-04T08:23:39.943Z,100.00
2022-10-04T08:26:13.671Z,100.00
2022-10-04T08:29:36.771Z,100.00
2022-10-04T08:32:37.551Z,100.00
2022-10-04T08:35:30.321Z,100.00
2022-10-04T08:51:46.936Z,77.55
2022-10-04T08:54:39.330Z,77.28
2022-10-04T08:57:47.623Z,74.76
2022-10-04T09:00:37.467Z,74.65
2022-10-04T09:03:27.269Z,73.69
2022-10-04T09:06:27.390Z,73.18
2022-10-04T09:09:04.835Z,72.98
2022-10-04T09:11:52.235Z,72.54
2022-10-04T09:14:26.268Z,73.25
2022-10-04T09:17:07.879Z,72.55
2022-10-04T09:19:41.640Z,71.22
2022-10-04T09:22:18.703Z,71.10
2022-10-04T09:25:09.137Z,69.82
2022-10-04T09:27:55.488Z,68.94
2022-10-04T09:30:45.065Z,68.43
2022-10-04T09:33:21.830Z,68.56
2022-10-04T09:36:16.354Z,68.34
2022-10-04T09:39:25.157Z,69.28
2022-10-04T09:42:00.333Z,67.82
2022-10-04T09:44:55.681Z,68.01
2022-10-04T09:47:37.833Z,68.20
2022-10-04T09:51:08.091Z,67.94
2022-10-04T09:53:46.504Z,67.45
2022-10-04T09:56:29.166Z,66.49
2022-10-04T09:59:16.772Z,66.02
2022-10-04T10:02:13.190Z,66.21
2022-10-04T10:05:19.490Z,65.48
2022-10-04T10:07:56.498Z,64.99
2022-10-04T10:10:59.772Z,65.21
2022-10-04T10:13:43.384Z,64.48
2022-10-04T10:16:45.157Z,63.89
2022-10-04T10:19:31.256Z,64.74
2022-10-04T10:22:18.050Z,64.82
2022-10-04T10:25:23.176Z,64.81
2022-10-04T10:28:19.301Z,64.05
2022-10-04T10:31:11.676Z,65.24
2022-10-04T10:34:05.047Z,66.15
2022-10-04T10:37:12.440Z,64.51
2022-10-04T10:39:58.091Z,65.04
2022-10-04T10:42:50.281Z,64.74
2022-10-04T10:45:21.268Z,64.01
2022-10-04T10:48:01.860Z,63.82
2022-10-04T10:51:00.334Z,64.10
2022-10-04T10:54:13.768Z,63.85
2022-10-04T10:57:19.947Z,62.74
2022-10-04T11:00:02.534Z,62.92
2022-10-04T11:03:13.559Z,63.17
2022-10-04T11:05:51.322Z,62.76
2022-10-04T11:09:07.682Z,62.02
2022-10-04T11:12:05.798Z,62.80
2022-10-04T11:15:07.012Z,62.37
2022-10-04T11:18:00.212Z,61.75
2022-10-04T11:20:30.914Z,61.18
2022-10-04T11:23:26.348Z,60.84
2022-10-04T11:26:14.130Z,61.32
2022-10-04T11:28:49.289Z,60.60
2022-10-04T11:31:32.684Z,61.11
2022-10-04T11:34:19.360Z,60.89
2022-10-04T11:36:50.106Z,60.83
2022-10-04T11:39:30.467Z,60.40
2022-10-04T11:42:20.512Z,60.71
2022-10-04T11:45:15.371Z,60.32
2022-10-04T11:47:55.435Z,59.51
2022-10-04T11:50:41.652Z,60.24
2022-10-04T11:53:30.156Z,60.86
2022-10-04T11:56:38.126Z,60.16
2022-10-04T11:59:37.491Z,59.76
2022-10-04T12:02:47.475Z,60.13
2022-10-04T12:05:36.787Z,59.46
2022-10-04T12:08:36.181Z,58.96
2022-10-04T12:11:52.084Z,59.12
2022-10-04T12:14:40.427Z,60.23
2022-10-04T12:17:11.215Z,61.34
2022-10-04T12:19:45.052Z,62.33
2022-10-04T12:22:37.216Z,59.97
2022-10-04T12:25:32.325Z,58.66
2022-10-04T12:28:27.313Z,60.22
2022-10-04T12:31:11.500Z,60.61
2022-10-04T12:34:16.746Z,59.24
2022-10-04T12:36:53.362Z,59.60
2022-10-04T12:39:45.059Z,59.86
2022-10-04T12:42:46.963Z,59.92
2022-10-04T12:45:53.008Z,59.51
2022-10-04T12:48:39.051Z,60.04
2022-10-04T12:51:29.803Z,61.36
2022-10-04T12:54:35.003Z,61.68
2022-10-04T12:57:52.373Z,60.41
2022-10-04T13:00:25.246Z,59.33
2022-10-04T13:03:32.270Z,59.33
2022-10-04T13:06:30.972Z,60.55
2022-10-04T13:09:20.667Z,59.02
2022-10-04T13:12:15.564Z,59.35
2022-10-04T13:15:01.150Z,58.03
2022-10-04T13:17:42.292Z,58.69
2022-10-04T13:20:13.493Z,58.06
2022-10-04T13:23:09.997Z,58.78
2022-10-04T13:26:15.617Z,59.81
2022-10-04T13:29:05.069Z,59.28
2022-10-04T13:31:38.317Z,59.36
2022-10-04T13:34:12.037Z,58.92
2022-10-04T13:36:51.337Z,59.55
2022-10-04T13:39:30.651Z,59.52
2022-10-04T13:42:12.657Z,59.11
2022-10-04T13:44:46.449Z,59.85
2022-10-04T13:47:14.482Z,60.58
2022-10-04T13:49:48.281Z,61.08
2022-10-04T13:52:40.542Z,59.90
2022-10-04T13:55:50.939Z,59.87
2022-10-04T13:58:45.853Z,60.88
2022-10-04T14:01:51.026Z,59.42
2022-10-04T14:04:47.797Z,59.56
2022-10-04T14:07:27.608Z,60.77
2022-10-04T14:10:31.724Z,60.03
2022-10-04T14:13:06.184Z,59.51
2022-10-04T14:15:39.671Z,60.03
2022-10-04T14:18:27.420Z,60.21
2022-10-04T14:21:19.971Z,61.25
2022-10-04T14:24:02.739Z,61.99
2022-10-04T14:26:31.243Z,60.97
2022-10-04T14:29:10.979Z,60.70
2022-10-04T14:32:00.392Z,61.10
2022-10-04T14:34:56.130Z,61.56
2022-10-04T14:37:26.908Z,59.46
2022-10-04T14:40:32.175Z,61.59
2022-10-04T14:43:29.820Z,61.99
2022-10-04T14:46:07.568Z,62.12
2022-10-04T14:48:50.207Z,62.51
2022-10-04T14:51:25.543Z,61.81
2022-10-04T14:54:02.331Z,61.08
2022-10-04T14:56:30.182Z,60.39
2022-10-04T14:59:14.927Z,61.08
2022-10-04T15:02:11.236Z,61.83
2022-10-04T15:04:58.302Z,60.60
2022-10-04T15:07:37.165Z,60.80
2022-10-04T15:10:22.177Z,62.65
2022-10-04T15:13:16.592Z,63.25
2022-10-04T15:15:54.333Z,62.43
2022-10-04T15:18:48.156Z,61.94
2022-10-04T15:21:32.461Z,62.45
2022-10-04T15:24:13.992Z,62.23
2022-10-04T15:27:15.354Z,62.95
2022-10-04T15:29:49.149Z,63.40
2022-10-04T15:32:48.676Z,62.94
2022-10-04T15:35:25.806Z,63.70
2022-10-04T15:38:32.831Z,62.99
2022-10-04T15:41:07.373Z,63.16
2022-10-04T15:44:06.018Z,62.20
2022-10-04T15:47:08.935Z,62.43
2022-10-04T15:49:54.917Z,62.86
2022-10-04T15:52:45.799Z,63.55
2022-10-04T15:55:22.588Z,63.45
2022-10-04T15:58:16.756Z,64.72
2022-10-04T16:01:04.099Z,65.22
2022-10-04T16:03:43.568Z,64.55
2022-10-04T16:06:40.222Z,64.64
2022-10-04T16:09:25.883Z,64.31
2022-10-04T16:12:19.170Z,64.38
2022-10-04T16:15:15.705Z,64.64
2022-10-04T16:17:58.870Z,65.38
2022-10-04T16:21:06.267Z,65.48
2022-10-04T16:23:40.213Z,64.65
2022-10-04T16:26:33.913Z,64.31
2022-10-04T16:29:35.429Z,64.27
2022-10-04T16:32:17.297Z,65.76
2022-10-04T16:34:58.709Z,65.37
2022-10-04T16:37:46.717Z,65.83
2022-10-04T16:40:26.867Z,66.46
2022-10-04T16:43:04.058Z,66.65
2022-10-04T16:46:23.286Z,66.97
2022-10-04T16:48:58.939Z,66.86
2022-10-04T16:51:44.290Z,67.89
2022-10-04T16:54:46.501Z,67.11
2022-10-04T16:57:22.562Z,67.62
2022-10-04T17:00:21.561Z,68.60
2022-10-04T17:03:16.291Z,68.08
2022-10-04T17:05:49.891Z,67.59
2022-10-04T17:08:17.896Z,67.25
2022-10-04T17:11:28.968Z,67.74
2022-10-04T17:14:06.968Z,68.21
2022-10-04T17:16:47.686Z,68.51
2022-10-04T17:19:16.192Z,69.08
2022-10-04T17:22:06.987Z,70.32
2022-10-04T17:24:43.783Z,70.12
2022-10-04T17:27:38.840Z,69.64
2022-10-04T17:30:18.803Z,100.00
2022-10-04T17:33:07.742Z,100.00
2022-10-04T17:36:14.922Z,100.00
2022-10-04T17:39:07.584Z,100.00
2022-10-04T17:41:54.941Z,100.00
2022-10-04T17:44:52.011Z,100.00
2022-10-04T17:47:56.552Z,100.00
2022-10-04T17:51:00.849Z,100.00
2022-10-04T17:53:50.231Z,100.00
2022-10-04T17:56:50.482Z,100.00
2022-10-04T17:59:30.021Z,100.00
2022-10-04T18:02:11.160Z,100.00
2022-10-04T18:04:48.807Z,100.00
2022-10-04T18:07:22.087Z,100.00
2022-10-04T18:09:52.483Z,100.00
2022-10-04T18:12:31.976Z,100.00
2022-10-04T18:15:18.107Z,100.00
2022-10-04T18:17:50.936Z,100.00
2022-10-04T18:20:31.358Z,100.00
2022-10-04T18:23:02.773Z,100.00
2022-10-04T18:25:32.396Z,100.00
2022-10-04T18:28:07.705Z,100.00
2022-10-04T18:30:51.316Z,100.00
2022-10-04T18:33:26.712Z,100.00
2022-10-04T18:36:01.051Z,100.00
2022-10-04T18:38:30.531Z,100.00
2022-10-04T18:41:17.675Z,100.00
2022-10-04T18:44:13.618Z,100.00
2022-10-04T18:46:43.012Z,100.00
2022-10-04T18:49:35.037Z,100.00
2022-10-04T18:52:12.643Z,100.00
2022-10-04T18:55:06.071Z,100.00
2022-10-04T18:57:59.243Z,100.00
2022-10-04T19:01:02.651Z,100.00
2022-10-04T19:03:43.389Z,100.00
2022-10-04T19:06:19.778Z,100.00
2022-10-04T19:09:12.312Z,100.00
2022-10-04T19:11:55.310Z,100.00
2022-10-04T19:14:49.880Z,100.00
2022-10-04T19:17:43.341Z,100.00
2022-10-04T19:20:19.995Z,100.00
2022-10-04T19:23:07.731Z,100.00
2022-10-04T19:25:41.245Z,100.00
2022-10-04T19:28:15.459Z,100.00
2022-10-04T19:31:05.024Z,100.00
2022-10-04T19:33:44.549Z,100.00
2022-10-04T19:36:32.684Z,100.00
2022-10-04T19:39:18.620Z,100.00
2022-10-04T19:41:49.610Z,100.00
2022-10-04T19:44:35.627Z,100.00
2022-10-04T19:47:22.526Z,100.00
2022-10-04T19:50:11.103Z,100.00
2022-10-04T19:53:05.627Z,100.00
2022-10-04T19:55:45.484Z,100.00
2022-10-04T19:58:22.925Z,100.00
2022-10-04T20:00:51.447Z,100.00
2022-10-04T20:03:20.598Z,100.00
2022-10-04T20:05:51.240Z,100.00
2022-10-04T20:08:45.377Z,100.00
2022-10-04T20:11:19.416Z,100.00
2022-10-04T20:14:10.845Z,100.00
2022-10-04T20:16:48.429Z,100.00
2022-10-04T20:19:28.615Z,100.00
2022-10-04T20:22:08.714Z,100.00
2022-10-04T20:24:37.054Z,100.00
2022-10-04T20:27:30.410Z,100.00
2022-10-04T20:30:04.184Z,100.00
2022-10-04T20:32:37.350Z,100.00
2022-10-04T20:35:10.801Z,100.00
2022-10-04T20:37:44.488Z,100.00
2022-10-04T20:40:35.249Z,100.00
2022-10-04T20:43:15.226Z,100.00
2022-10-04T20:45:47.732Z,100.00
2022-10-04T20:48:29.743Z,100.00
2022-10-04T20:51:10.786Z,100.00
2022-10-04T20:53:46.795Z,100.00
2022-10-04T20:56:19.077Z,100.00
2022-10-04T20:58:59.713Z,100.00
2022-10-04T21:01:38.235Z,100.00
2022-10-04T21:04:15.840Z,100.00
2022-10-04T21:06:54.529Z,100.00
2022-10-04T21:09:23.653Z,100.00
2022-10-04T21:11:53.064Z,100.00
2022-10-04T21:14:23.676Z,100.00
2022-10-04T21:17:01.480Z,100.00
2022-10-04T21:19:30.398Z,100.00
2022-10-04T21:22:03.157Z,100.00
2022-10-04T21:24:39.843Z,100.00
2022-10-04T21:27:12.900Z,100.00
2022-10-04T21:29:40.995Z,100.00
2022-10-04T21:32:09.255Z,100.00
2022-10-04T21:34:54.063Z,100.00
2022-10-04T21:37:22.871Z,100.00
2022-10-04T21:39:50.903Z,100.00
2022-10-04T21:42:18.692Z,100.00
2022-10-04T21:44:46.559Z,100.00
2022-10-04T21:47:14.552Z,100.00
2022-10-04T21:49:43.187Z,100.00
2022-10-04T21:52:11.167Z,100.00
2022-10-04T21:54:39.290Z,100.00
2022-10-04T21:57:07.268Z,100.00
2022-10-04T21:59:35.266Z,100.00
2022-10-04T22:02:03.962Z,100.00
2022-10-04T22:04:31.874Z,100.00
2022-10-04T22:06:59.874Z,100.00
2022-10-04T22:09:27.755Z,100.00
2022-10-04T22:11:55.713Z,100.00
2022-10-04T22:14:23.460Z,100.00
2022-10-04T22:16:52.163Z,100.00
2022-10-04T22:19:20.404Z,100.00
2022-10-04T22:21:48.583Z,100.00
2022-10-04T22:24:20.582Z,100.00
2022-10-04T22:26:49.001Z,100.00
2022-10-04T22:29:18.896Z,100.00
2022-10-04T22:31:51.049Z,100.00
2022-10-04T22:34:21.743Z,100.00
2022-10-04T22:36:51.413Z,100.00
2022-10-04T22:39:20.450Z,100.00
2022-10-04T22:41:58.159Z,100.00
2022-10-04T22:44:29.450Z,100.00
2022-10-04T22:47:00.312Z,100.00
2022-10-04T22:49:31.970Z,100.00
2022-10-04T22:52:03.016Z,100.00
2022-10-04T22:54:35.667Z,100.00
2022-10-04T22:57:04.008Z,100.00
2022-10-04T22:59:39.953Z,100.00
2022-10-04T23:02:15.545Z,100.00
2022-10-04T23:04:52.568Z,100.00
2022-10-04T23:07:21.376Z,100.00
2022-10-04T23:09:49.633Z,100.00
2022-10-04T23:12:17.482Z,100.00
2022-10-04T23:14:45.383Z,100.00
2022-10-04T23:17:25.323Z,100.00
2022-10-04T23:19:56.439Z,100.00
2022-10-04T23:22:28.200Z,100.00
2022-10-04T23:24:56.892Z,100.00
2022-10-04T23:27:24.911Z,100.00
2022-10-04T23:30:04.436Z,100.00
2022-10-04T23:32:33.012Z,100.00
2022-10-04T23:35:04.132Z,100.00
2022-10-04T23:37:32.717Z,100.00
2022-10-04T23:40:00.885Z,100.00
2022-10-04T23:42:32.294Z,100.00
2022-10-04T23:45:01.836Z,100.00
2022-10-04T23:47:35.416Z,100.00
2022-10-04T23:50:17.744Z,100.00
2022-10-04T23:52:45.617Z,100.00
2022-10-04T23:55:21.720Z,100.00
2022-10-04T23:57:51.243Z,100.00
